createdAt,value
2018-03-11T00:01:08.384Z,96897.24
2018-03-11T00:03:36.826Z,96900.19
2018-03-11T00:06:05.092Z,96897.66
2018-03-11T00:08:33.344Z,96894.72
2018-03-11T00:11:02.370Z,96901.94
2018-03-11T00:13:30.624Z,96903.31
2018-03-11T00:15:59.671Z,96899.07
2018-03-11T00:18:27.922Z,96895.69
2018-03-11T00:20:56.182Z,96899.74
2018-03-11T00:23:24.428Z,96896.38
2018-03-11T00:25:53.387Z,96899.08
2018-03-11T00:28:21.637Z,96897.03
2018-03-11T00:30:49.895Z,96892.91
2018-03-11T00:33:18.144Z,96888.31
2018-03-11T00:35:46.399Z,96887.55
2018-03-11T00:38:14.651Z,96887.34
2018-03-11T00:40:42.903Z,96881.61
2018-03-11T00:43:11.143Z,96880.55
2018-03-11T00:45:39.386Z,96885.72
2018-03-11T00:48:07.641Z,96885.31
2018-03-11T00:50:35.884Z,96878.66
2018-03-11T00:53:04.911Z,96875.36
2018-03-11T00:55:33.160Z,96873.47
2018-03-11T00:58:02.184Z,96868.34
2018-03-11T01:00:30.434Z,96865.29
2018-03-11T01:02:59.456Z,96871.95
2018-03-11T01:05:27.704Z,96870.72
2018-03-11T01:07:55.960Z,96868.81
2018-03-11T01:10:24.977Z,96868.28
2018-03-11T01:12:53.245Z,96865.13
2018-03-11T01:15:22.251Z,96858.16
2018-03-11T01:17:50.523Z,96852.61
2018-03-11T01:20:18.768Z,96854.47
2018-03-11T01:22:47.024Z,96845.06
2018-03-11T01:25:15.288Z,96844.81
2018-03-11T01:27:43.544Z,96841.69
2018-03-11T01:30:11.797Z,96842.44
2018-03-11T01:32:40.061Z,96838.77
2018-03-11T01:35:09.084Z,96831.69
2018-03-11T01:37:37.338Z,96831.75
2018-03-11T01:40:05.586Z,96833.48
2018-03-11T01:42:33.826Z,96828.95
2018-03-11T01:45:02.847Z,96826.94
2018-03-11T01:47:31.090Z,96820.69
2018-03-11T01:49:59.371Z,96818.11
2018-03-11T01:52:28.380Z,96813.52
2018-03-11T01:54:56.635Z,96813.39
2018-03-11T01:57:24.892Z,96807.48
2018-03-11T01:59:53.140Z,96804.17
2018-03-11T02:02:22.156Z,96798.69
2018-03-11T02:04:50.412Z,96798.64
2018-03-11T02:07:19.432Z,96799.92
2018-03-11T02:09:47.686Z,96793.20
2018-03-11T02:12:15.942Z,96785.37
2018-03-11T02:14:44.970Z,96776.59
2018-03-11T02:17:13.213Z,96774.56
2018-03-11T02:19:42.230Z,96772.37
2018-03-11T02:22:10.503Z,96774.45
2018-03-11T02:24:39.517Z,96779.20
2018-03-11T02:27:07.768Z,96775.39
2018-03-11T02:29:36.032Z,96772.84
2018-03-11T02:32:05.062Z,96771.46
2018-03-11T02:34:33.311Z,96761.05
2018-03-11T02:37:02.338Z,96759.59
2018-03-11T02:39:30.590Z,96759.33
2018-03-11T02:41:58.841Z,96751.33
2018-03-11T02:44:27.854Z,96746.73
2018-03-11T02:46:56.099Z,96740.00
2018-03-11T02:49:24.358Z,96737.50
2018-03-11T02:51:52.610Z,96733.34
2018-03-11T02:54:20.869Z,96726.66
2018-03-11T02:56:49.120Z,96736.71
2018-03-11T02:59:18.152Z,96735.25
2018-03-11T03:01:46.408Z,96722.64
2018-03-11T03:04:14.665Z,96726.59
2018-03-11T03:06:43.676Z,96729.32
2018-03-11T03:09:11.976Z,96719.61
2018-03-11T03:11:40.231Z,96714.64
2018-03-11T03:14:08.496Z,96710.92
2018-03-11T03:16:36.744Z,96710.44
2018-03-11T03:19:05.002Z,96715.42
2018-03-11T03:21:33.280Z,96717.50
2018-03-11T03:24:01.549Z,96722.23
2018-03-11T03:26:29.804Z,96717.08
2018-03-11T03:28:58.083Z,96719.16
2018-03-11T03:31:26.345Z,96711.66
2018-03-11T03:33:54.602Z,96710.81
2018-03-11T03:36:22.862Z,96708.37
2018-03-11T03:38:51.881Z,96714.71
2018-03-11T03:41:20.136Z,96708.86
2018-03-11T03:43:49.155Z,96697.19
2018-03-11T03:46:17.419Z,96690.59
2018-03-11T03:48:45.664Z,96692.33
2018-03-11T03:51:14.697Z,96683.49
2018-03-11T03:53:42.974Z,96675.46
2018-03-11T03:56:11.236Z,96667.91
2018-03-11T03:58:39.490Z,96675.45
2018-03-11T04:01:08.510Z,96674.72
2018-03-11T04:03:36.766Z,96672.37
2018-03-11T04:06:05.792Z,96674.70
2018-03-11T04:08:34.052Z,96673.95
2018-03-11T04:11:02.318Z,96678.37
2018-03-11T04:13:31.341Z,96674.28
2018-03-11T04:15:59.612Z,96666.31
2018-03-11T04:18:27.879Z,96668.34
2018-03-11T04:20:56.135Z,96666.66
2018-03-11T04:23:25.168Z,96671.46
2018-03-11T04:25:54.151Z,96670.25
2018-03-11T04:28:22.418Z,96667.29
2018-03-11T04:30:50.661Z,96669.73
2018-03-11T04:33:19.692Z,96673.52
2018-03-11T04:35:47.937Z,96674.80
2018-03-11T04:38:16.973Z,96677.72
2018-03-11T04:40:45.218Z,96680.63
2018-03-11T04:43:13.476Z,96671.75
2018-03-11T04:45:42.494Z,96669.19
2018-03-11T04:48:10.761Z,96659.55
2018-03-11T04:50:39.020Z,96666.60
2018-03-11T04:53:08.055Z,96661.16
2018-03-11T04:55:36.303Z,96657.36
2018-03-11T04:58:04.562Z,96643.50
2018-03-11T05:00:33.584Z,96642.92
2018-03-11T05:03:01.836Z,96632.32
2018-03-11T05:05:30.850Z,96631.84
2018-03-11T05:07:59.099Z,96633.19
2018-03-11T05:10:28.128Z,96636.41
2018-03-11T05:12:56.390Z,96636.50
2018-03-11T05:15:24.649Z,96625.83
2018-03-11T05:17:53.670Z,96625.00
2018-03-11T05:20:21.919Z,96623.72
2018-03-11T05:22:50.932Z,96619.50
2018-03-11T05:25:19.187Z,96614.77
2018-03-11T05:27:48.208Z,96613.52
2018-03-11T05:30:16.464Z,96609.14
2018-03-11T05:32:44.724Z,96609.16
2018-03-11T05:35:13.748Z,96606.70
2018-03-11T05:37:42.003Z,96601.98
2018-03-11T05:40:11.021Z,96601.70
2018-03-11T05:42:39.272Z,96600.78
2018-03-11T05:45:08.288Z,96596.13
2018-03-11T05:47:36.533Z,96604.16
2018-03-11T05:50:05.565Z,96606.61
2018-03-11T05:52:33.811Z,96607.00
2018-03-11T05:55:02.848Z,96607.00
2018-03-11T05:57:31.097Z,96611.70
2018-03-11T05:59:59.351Z,96600.33
2018-03-11T06:02:28.372Z,96597.89
2018-03-11T06:04:56.610Z,96601.20
2018-03-11T06:07:25.634Z,96592.80
2018-03-11T06:09:53.896Z,96592.39
2018-03-11T06:12:22.157Z,96592.31
2018-03-11T06:14:51.168Z,96587.69
2018-03-11T06:17:19.424Z,96581.81
2018-03-11T06:19:48.437Z,96584.42
2018-03-11T06:22:16.697Z,96575.12
2018-03-11T06:24:45.714Z,96565.37
2018-03-11T06:27:13.973Z,96556.95
2018-03-11T06:29:42.994Z,96546.77
2018-03-11T06:32:11.251Z,96545.77
2018-03-11T06:34:40.268Z,96549.06
2018-03-11T06:37:08.538Z,96545.57
2018-03-11T06:39:36.780Z,96543.86
2018-03-11T06:42:05.806Z,96544.34
2018-03-11T06:44:34.042Z,96540.06
2018-03-11T06:47:03.059Z,96526.52
2018-03-11T06:49:31.307Z,96521.95
2018-03-11T06:51:59.561Z,96506.39
2018-03-11T06:54:27.797Z,96517.60
2018-03-11T06:56:56.055Z,96525.27
2018-03-11T06:59:24.309Z,96529.28
2018-03-11T07:01:52.555Z,96516.26
2018-03-11T07:04:20.813Z,96508.67
2018-03-11T07:06:49.061Z,96503.88
2018-03-11T07:09:17.309Z,96505.50
2018-03-11T07:11:46.330Z,96498.16
2018-03-11T07:14:14.578Z,96502.76
2018-03-11T07:16:43.598Z,96507.67
2018-03-11T07:19:11.884Z,96504.84
2018-03-11T07:21:40.134Z,96499.05
2018-03-11T07:24:09.148Z,96495.86
2018-03-11T07:26:37.393Z,96496.01
2018-03-11T07:29:06.420Z,96493.19
2018-03-11T07:31:34.667Z,96499.34
2018-03-11T07:34:03.698Z,96502.52
2018-03-11T07:36:31.941Z,96510.37
2018-03-11T07:39:00.963Z,96517.75
2018-03-11T07:41:29.219Z,96528.77
2018-03-11T07:43:57.472Z,96530.56
2018-03-11T07:46:25.726Z,96517.44
2018-03-11T07:48:53.987Z,96512.28
2018-03-11T07:51:22.229Z,96513.90
2018-03-11T07:53:50.485Z,96528.17
2018-03-11T07:56:19.510Z,96536.88
2018-03-11T07:58:47.749Z,96547.38
2018-03-11T08:01:16.005Z,96554.94
2018-03-11T08:03:44.258Z,96558.23
2018-03-11T08:06:12.511Z,96571.30
2018-03-11T08:08:40.756Z,96577.59
2018-03-11T08:11:09.779Z,96575.61
2018-03-11T08:13:38.021Z,96575.68
2018-03-11T08:16:07.044Z,96568.34
2018-03-11T08:18:35.287Z,96577.08
2018-03-11T08:21:04.311Z,96567.32
2018-03-11T08:23:32.555Z,96555.83
2018-03-11T08:26:01.582Z,96559.48
2018-03-11T08:28:29.826Z,96548.05
2018-03-11T08:30:58.852Z,96551.36
2018-03-11T08:33:27.107Z,96546.11
2018-03-11T08:35:55.365Z,96545.23
2018-03-11T08:38:24.390Z,96540.63
2018-03-11T08:40:52.651Z,96542.25
2018-03-11T08:43:20.902Z,96539.08
2018-03-11T08:45:49.929Z,96528.24
2018-03-11T08:48:18.188Z,96525.51
2018-03-11T08:50:47.222Z,96513.71
2018-03-11T08:53:15.475Z,96508.34
2018-03-11T08:55:43.753Z,96488.47
2018-03-11T08:58:12.002Z,96479.86
2018-03-11T09:00:41.033Z,96478.69
2018-03-11T09:03:09.292Z,96466.77
2018-03-11T09:05:37.549Z,96463.17
2018-03-11T09:08:06.579Z,96454.05
2018-03-11T09:10:34.854Z,96436.19
2018-03-11T09:13:03.101Z,96434.16
2018-03-11T09:15:31.365Z,96427.89
2018-03-11T09:18:00.399Z,96424.98
2018-03-11T09:20:28.660Z,96411.03
2018-03-11T09:22:57.057Z,96400.27
2018-03-11T09:25:25.323Z,96380.31
2018-03-11T09:27:53.589Z,96393.54
2018-03-11T09:30:21.839Z,96424.09
2018-03-11T09:32:50.862Z,96439.17
2018-03-11T09:35:19.120Z,96443.09
2018-03-11T09:37:48.149Z,96443.44
2018-03-11T09:40:16.455Z,96455.63
2018-03-11T09:42:44.717Z,96456.66
2018-03-11T09:45:12.983Z,96462.03
2018-03-11T09:47:41.233Z,96451.57
2018-03-11T09:50:09.489Z,96450.10
2018-03-11T09:52:38.508Z,96453.70
2018-03-11T09:55:06.776Z,96454.13
2018-03-11T09:57:35.027Z,96452.94
2018-03-11T10:00:04.056Z,96448.11
2018-03-11T10:02:32.302Z,96442.83
2018-03-11T10:05:01.323Z,96450.65
2018-03-11T10:07:29.578Z,96444.68
2018-03-11T10:09:58.610Z,96450.52
2018-03-11T10:12:26.861Z,96454.81
2018-03-11T10:14:55.119Z,96444.11
2018-03-11T10:17:24.140Z,96437.95
2018-03-11T10:19:52.394Z,96445.47
2018-03-11T10:22:20.710Z,96433.19
2018-03-11T10:24:48.964Z,96440.02
2018-03-11T10:27:17.292Z,96441.70
2018-03-11T10:29:45.503Z,96440.45
2018-03-11T10:32:13.866Z,96442.53
2018-03-11T10:34:42.874Z,96438.58
2018-03-11T10:37:11.238Z,96439.81
2018-03-11T10:39:40.421Z,96442.31
2018-03-11T10:42:09.446Z,96437.58
2018-03-11T10:44:37.844Z,96430.16
2018-03-11T10:47:06.169Z,96422.69
2018-03-11T10:49:34.482Z,96422.52
2018-03-11T10:52:02.822Z,96426.42
2018-03-11T10:54:31.176Z,96424.83
2018-03-11T10:56:59.449Z,96429.58
2018-03-11T10:59:27.762Z,96427.17
2018-03-11T11:02:01.660Z,96431.34
2018-03-11T11:07:31.414Z,96417.81
2018-03-11T11:10:00.496Z,96420.30
2018-03-11T11:12:29.572Z,96429.24
2018-03-11T11:14:57.931Z,96419.56
2018-03-11T11:17:26.258Z,96399.98
2018-03-11T11:19:54.563Z,96402.87
2018-03-11T11:22:22.904Z,96404.88
2018-03-11T11:24:51.961Z,96387.39
2018-03-11T11:27:20.270Z,96400.46
2018-03-11T11:29:48.561Z,96401.77
2018-03-11T11:32:16.866Z,96389.22
2018-03-11T11:34:45.176Z,96400.92
2018-03-11T11:37:13.479Z,96391.05
2018-03-11T11:39:42.532Z,96392.27
2018-03-11T11:42:10.826Z,96385.32
2018-03-11T11:44:39.126Z,96382.78
2018-03-11T11:47:08.205Z,96374.19
2018-03-11T11:49:36.536Z,96372.66
2018-03-11T11:52:04.885Z,96374.66
2018-03-11T11:54:33.989Z,96374.06
2018-03-11T11:57:02.290Z,96380.41
2018-03-11T11:59:30.626Z,96380.48
2018-03-11T12:01:59.701Z,96382.27
2018-03-11T12:04:28.031Z,96383.52
2018-03-11T12:06:56.362Z,96370.25
2018-03-11T12:09:24.696Z,96367.06
2018-03-11T12:11:53.007Z,96356.75
2018-03-11T12:14:21.322Z,96349.73
2018-03-11T12:16:49.640Z,96349.64
2018-03-11T12:19:17.954Z,96339.31
2018-03-11T12:21:47.030Z,96338.16
2018-03-11T12:24:15.334Z,96337.28
2018-03-11T12:26:44.414Z,96344.02
2018-03-11T12:29:12.702Z,96337.72
2018-03-11T12:31:41.782Z,96333.33
2018-03-11T12:34:10.859Z,96322.30
2018-03-11T12:36:39.146Z,96330.92
2018-03-11T12:39:07.454Z,96315.97
2018-03-11T12:41:35.748Z,96319.27
2018-03-11T12:44:04.068Z,96311.83
2018-03-11T12:46:32.380Z,96302.47
2018-03-11T12:49:01.434Z,96289.33
2018-03-11T12:51:29.756Z,96276.48
2018-03-11T12:53:58.072Z,96281.09
2018-03-11T12:56:26.371Z,96273.62
2018-03-11T12:58:54.690Z,96265.93
2018-03-11T13:01:22.987Z,96252.64
2018-03-11T13:03:51.289Z,96240.70
2018-03-11T13:06:19.583Z,96236.59
2018-03-11T13:08:47.898Z,96223.73
2018-03-11T13:11:16.203Z,96215.58
2018-03-11T13:13:44.489Z,96194.13
2018-03-11T13:16:12.813Z,96199.97
2018-03-11T13:18:41.860Z,96202.48
2018-03-11T13:21:11.959Z,96198.30
2018-03-11T13:23:40.266Z,96192.98
2018-03-11T13:26:08.570Z,96192.36
2018-03-11T13:28:47.412Z,96196.19
2018-03-11T13:31:15.738Z,96204.75
2018-03-11T13:34:01.855Z,96205.40
2018-03-11T13:36:30.142Z,96206.22
2018-03-11T13:39:16.858Z,96205.55
2018-03-11T13:41:45.976Z,96186.59
2018-03-11T13:44:15.599Z,96182.95
2018-03-11T13:46:58.435Z,96173.57
2018-03-11T13:49:26.691Z,96169.22
2018-03-11T13:52:12.743Z,96166.11
2018-03-11T13:54:40.991Z,96162.80
2018-03-11T14:00:31.585Z,96144.98
2018-03-11T14:03:00.609Z,96145.08
2018-03-11T14:05:28.863Z,96147.51
2018-03-11T14:07:57.145Z,96140.33
2018-03-11T14:10:25.393Z,96129.86
2018-03-11T14:12:53.633Z,96127.42
2018-03-11T14:15:22.658Z,96121.37
2018-03-11T14:17:50.896Z,96115.67
2018-03-11T14:20:19.918Z,96111.94
2018-03-11T14:22:48.172Z,96107.20
2018-03-11T14:25:17.200Z,96109.77
2018-03-11T14:27:45.443Z,96113.55
2018-03-11T14:30:14.461Z,96117.21
2018-03-11T14:32:42.712Z,96116.90
2018-03-11T14:38:18.539Z,96124.70
2018-03-11T14:40:46.860Z,96138.58
2018-03-11T14:43:15.926Z,96143.48
2018-03-11T14:45:44.247Z,96139.34
2018-03-11T14:48:12.511Z,96135.80
2018-03-11T14:50:41.574Z,96140.30
2018-03-11T14:53:09.770Z,96147.26
2018-03-11T14:55:38.816Z,96153.19
2018-03-11T14:58:07.079Z,96152.53
2018-03-11T15:00:35.549Z,96159.92
2018-03-11T15:03:05.798Z,96163.81
2018-03-11T15:05:34.201Z,96155.92
2018-03-11T15:08:02.521Z,96165.98
2018-03-11T15:10:30.893Z,96170.75
2018-03-11T15:13:00.289Z,96169.16
2018-03-11T15:15:29.333Z,96165.10
2018-03-11T15:17:57.675Z,96159.50
2018-03-11T15:20:26.730Z,96159.98
2018-03-11T15:22:55.126Z,96156.96
2018-03-11T15:25:24.210Z,96153.85
2018-03-11T15:27:53.338Z,96151.73
2018-03-11T15:30:21.646Z,96154.58
2018-03-11T15:32:49.988Z,96152.19
2018-03-11T15:35:18.385Z,96151.97
2018-03-11T15:37:46.749Z,96158.03
2018-03-11T15:40:16.283Z,96155.66
2018-03-11T15:42:44.606Z,96162.19
2018-03-11T15:45:13.715Z,96155.69
2018-03-11T15:47:42.047Z,96157.50
2018-03-11T15:50:10.377Z,96159.37
2018-03-11T15:52:38.653Z,96156.64
2018-03-11T15:55:06.904Z,96150.86
2018-03-11T15:57:35.944Z,96154.80
2018-03-11T16:00:04.196Z,96158.78
2018-03-11T16:02:32.447Z,96150.22
2018-03-11T16:05:00.707Z,96156.33
2018-03-11T16:07:28.967Z,96155.05
2018-03-11T16:09:57.221Z,96160.24
2018-03-11T16:12:25.471Z,96159.85
2018-03-11T16:14:53.723Z,96158.63
2018-03-11T16:17:22.749Z,96161.48
2018-03-11T16:19:51.011Z,96170.30
2018-03-11T16:22:20.028Z,96168.95
2018-03-11T16:24:48.276Z,96162.06
2018-03-11T16:27:17.292Z,96168.39
2018-03-11T16:29:45.550Z,96170.56
2018-03-11T16:32:13.798Z,96174.22
2018-03-11T16:34:42.043Z,96171.53
2018-03-11T16:37:10.363Z,96173.63
2018-03-11T16:39:39.393Z,96176.83
2018-03-11T16:42:07.643Z,96177.98
2018-03-11T16:44:36.659Z,96184.00
2018-03-11T16:47:04.907Z,96180.23
2018-03-11T16:49:33.921Z,96180.20
2018-03-11T16:52:02.178Z,96185.25
2018-03-11T16:54:31.204Z,96180.89
2018-03-11T16:56:59.453Z,96175.05
2018-03-11T16:59:27.701Z,96182.77
2018-03-11T17:01:55.951Z,96180.90
2018-03-11T17:04:24.201Z,96176.82
2018-03-11T17:06:52.456Z,96183.80
2018-03-11T17:09:22.809Z,96183.99
2018-03-11T17:11:51.078Z,96169.37
2018-03-11T17:14:19.332Z,96177.79
2018-03-11T17:16:47.599Z,96180.53
2018-03-11T17:19:16.667Z,96182.87
2018-03-11T17:21:44.871Z,96174.98
2018-03-11T17:24:13.117Z,96177.62
2018-03-11T17:26:41.402Z,96178.59
2018-03-11T17:29:09.642Z,96177.17
2018-03-11T17:31:37.893Z,96172.38
2018-03-11T17:34:06.159Z,96178.58
2018-03-11T17:36:34.390Z,96173.59
2018-03-11T17:39:02.649Z,96175.52
2018-03-11T17:41:30.909Z,96172.82
2018-03-11T17:43:59.174Z,96169.30
2018-03-11T17:46:27.412Z,96170.42
2018-03-11T17:48:56.426Z,96176.17
2018-03-11T17:51:24.670Z,96170.11
2018-03-11T17:53:53.706Z,96176.31
2018-03-11T17:56:21.938Z,96167.70
2018-03-11T17:58:50.204Z,96170.55
2018-03-11T18:01:18.493Z,96160.86
2018-03-11T18:03:46.707Z,96168.55
2018-03-11T18:06:14.954Z,96163.64
2018-03-11T18:08:43.994Z,96157.41
2018-03-11T18:11:12.235Z,96153.64
2018-03-11T18:13:40.482Z,96159.05
2018-03-11T18:16:09.508Z,96161.48
2018-03-11T18:18:37.778Z,96154.18
2018-03-11T18:21:06.035Z,96158.91
2018-03-11T18:23:35.065Z,96161.45
2018-03-11T18:26:03.573Z,96160.63
2018-03-11T18:28:31.917Z,96162.23
2018-03-11T18:31:00.189Z,96169.06
2018-03-11T18:33:28.453Z,96167.84
2018-03-11T18:35:56.711Z,96176.71
2018-03-11T18:38:25.722Z,96178.29
2018-03-11T18:40:53.978Z,96179.42
2018-03-11T18:43:22.990Z,96181.34
2018-03-11T18:45:51.475Z,96176.75
2018-03-11T18:48:19.728Z,96181.87
2018-03-11T18:50:47.971Z,96189.59
2018-03-11T18:53:16.232Z,96187.47
2018-03-11T18:55:44.476Z,96187.86
2018-03-11T18:58:12.730Z,96189.19
2018-03-11T19:00:41.755Z,96193.12
2018-03-11T19:03:10.717Z,96185.63
2018-03-11T19:08:12.605Z,96181.91
2018-03-11T19:10:40.867Z,96176.10
2018-03-11T19:13:09.882Z,96175.90
2018-03-11T19:15:38.153Z,96179.16
2018-03-11T19:18:06.436Z,96175.80
2018-03-11T19:20:34.699Z,96174.27
2018-03-11T19:23:03.709Z,96174.37
2018-03-11T19:25:31.967Z,96174.26
2018-03-11T19:28:00.982Z,96165.75
2018-03-11T19:30:29.234Z,96160.61
2018-03-11T19:32:58.245Z,96160.61
2018-03-11T19:35:26.506Z,96162.34
2018-03-11T19:37:55.517Z,96163.78
2018-03-11T19:40:23.804Z,96161.82
2018-03-11T19:42:52.050Z,96158.83
2018-03-11T19:45:21.071Z,96164.27
2018-03-11T19:47:49.324Z,96159.98
2018-03-11T19:50:18.341Z,96157.52
2018-03-11T19:52:46.586Z,96157.57
2018-03-11T19:55:15.601Z,96161.87
2018-03-11T19:57:43.846Z,96155.20
2018-03-11T20:00:12.862Z,96154.55
2018-03-11T20:02:41.103Z,96155.01
2018-03-11T20:05:09.360Z,96150.34
2018-03-11T20:07:37.608Z,96152.95
2018-03-11T20:10:05.858Z,96144.77
2018-03-11T20:12:34.114Z,96141.45
2018-03-11T20:15:03.126Z,96148.73
2018-03-11T20:17:31.382Z,96143.75
2018-03-11T20:20:00.401Z,96141.58
2018-03-11T20:22:28.658Z,96135.97
2018-03-11T20:24:57.669Z,96136.50
2018-03-11T20:27:25.925Z,96135.89
2018-03-11T20:29:54.932Z,96131.06
2018-03-11T20:32:23.190Z,96130.08
2018-03-11T20:34:52.202Z,96129.42
2018-03-11T20:37:20.453Z,96118.66
2018-03-11T20:39:49.472Z,96113.91
2018-03-11T20:42:17.732Z,96112.81
2018-03-11T20:44:46.734Z,96105.53
2018-03-11T20:47:14.990Z,96098.20
2018-03-11T20:49:44.007Z,96096.84
2018-03-11T20:52:12.262Z,96098.85
2018-03-11T20:54:41.272Z,96086.38
2018-03-11T20:57:09.534Z,96076.39
2018-03-11T20:59:38.542Z,96072.65
2018-03-11T21:02:06.797Z,96071.59
2018-03-11T21:04:35.814Z,96072.59
2018-03-11T21:07:04.074Z,96062.31
2018-03-11T21:09:33.099Z,96071.41
2018-03-11T21:12:01.352Z,96068.02
2018-03-11T21:14:29.609Z,96065.39
2018-03-11T21:16:58.633Z,96058.44
2018-03-11T21:19:26.881Z,96043.55
2018-03-11T21:21:55.897Z,96046.13
2018-03-11T21:24:25.092Z,96047.77
2018-03-11T21:26:54.106Z,96050.71
2018-03-11T21:29:22.358Z,96052.63
2018-03-11T21:31:51.382Z,96055.25
2018-03-11T21:34:19.638Z,96067.92
2018-03-11T21:36:47.881Z,96060.03
2018-03-11T21:39:16.137Z,96058.75
2018-03-11T21:41:44.385Z,96056.55
2018-03-11T21:44:12.641Z,96058.01
2018-03-11T21:46:40.889Z,96050.34
2018-03-11T21:49:09.907Z,96049.34
2018-03-11T21:51:38.150Z,96056.55
2018-03-11T21:54:07.177Z,96053.89
2018-03-11T21:56:35.427Z,96064.78
2018-03-11T21:59:04.447Z,96061.77
2018-03-11T22:01:32.694Z,96060.72
2018-03-11T22:04:01.707Z,96056.64
2018-03-11T22:06:29.960Z,96052.63
2018-03-11T22:08:58.211Z,96049.61
2018-03-11T22:11:26.462Z,96048.73
2018-03-11T22:13:54.733Z,96052.91
2018-03-11T22:16:22.975Z,96054.84
2018-03-11T22:18:51.236Z,96052.72
2018-03-11T22:23:54.765Z,96041.03
2018-03-11T22:26:23.010Z,96034.40
2018-03-11T22:28:51.266Z,96030.56
2018-03-11T22:31:19.515Z,96030.83
2018-03-11T22:33:47.772Z,96030.34
2018-03-11T22:36:16.022Z,96028.21
2018-03-11T22:38:44.290Z,96027.66
2018-03-11T22:41:12.529Z,96029.75
2018-03-11T22:43:40.778Z,96026.95
2018-03-11T22:46:09.044Z,96026.81
2018-03-11T22:48:38.050Z,96036.18
2018-03-11T22:51:06.311Z,96030.69
2018-03-11T22:53:35.387Z,96029.81
2018-03-11T22:56:03.691Z,96034.09
2018-03-11T22:58:31.901Z,96023.08
2018-03-11T23:01:00.150Z,96028.84
2018-03-11T23:03:28.397Z,96026.88
2018-03-11T23:05:57.413Z,96015.28
2018-03-11T23:08:25.667Z,96019.17
2018-03-11T23:10:54.683Z,96021.05
2018-03-11T23:13:22.925Z,96024.07
2018-03-11T23:15:51.955Z,96021.73
2018-03-11T23:18:20.203Z,96024.41
2018-03-11T23:20:49.217Z,96013.67
2018-03-11T23:23:17.461Z,96016.72
2018-03-11T23:25:45.721Z,96016.34
2018-03-11T23:28:13.970Z,96011.98
2018-03-11T23:30:42.227Z,96002.81
2018-03-11T23:33:10.466Z,95998.45
2018-03-11T23:35:39.490Z,95999.08
2018-03-11T23:38:07.744Z,95997.86
2018-03-11T23:40:36.755Z,95992.34
2018-03-11T23:43:05.002Z,95998.60
2018-03-11T23:45:34.030Z,95997.06
2018-03-11T23:48:02.279Z,95999.42
2018-03-11T23:50:30.538Z,95995.79
2018-03-11T23:52:58.785Z,95989.97
2018-03-11T23:55:27.047Z,95999.41
2018-03-11T23:57:55.290Z,95998.05
